Time;durP1;ratioP1;P1;durP2;ratioP2;P2;SDS_P1;SDS_P2;PMS_P1;PMS_P2;Temp;Humidity;BMP_temperature;BMP_pressure;BME280_temperature;BME280_humidity;BME280_pressure;Samples;Min_cycle;Max_cycle;Signal;HPM_P1;HPM_P2
2023/12/11 00:01:03;;;;;;;3.50;1.60;;;7.30;99.90;;;;;;5013986;28;20604;-84
2023/12/11 00:03:29;;;;;;;6.20;1.80;;;7.30;99.90;;;;;;5015571;28;20183;-84
2023/12/11 00:05:54;;;;;;;3.40;1.40;;;7.30;99.90;;;;;;5014612;28;20576;-84
2023/12/11 00:08:20;;;;;;;5.37;1.70;;;7.30;99.90;;;;;;5014604;28;20182;-84
2023/12/11 00:10:45;;;;;;;4.90;1.63;;;7.30;99.90;;;;;;5013818;28;20179;-83
2023/12/11 00:13:11;;;;;;;4.50;1.63;;;7.30;99.90;;;;;;5014151;28;20254;-83
2023/12/11 00:15:38;;;;;;;5.63;1.50;;;7.30;99.90;;;;;;5014547;28;20687;-83
2023/12/11 00:18:04;;;;;;;4.17;1.83;;;7.30;99.90;;;;;;5014595;28;20602;-84
2023/12/11 00:20:29;;;;;;;5.60;1.70;;;7.40;99.90;;;;;;5013517;28;20179;-84
2023/12/11 00:22:55;;;;;;;5.33;1.63;;;7.40;99.90;;;;;;5015592;28;20183;-84
2023/12/11 00:25:20;;;;;;;4.90;1.47;;;7.30;99.90;;;;;;5015220;28;20239;-84
2023/12/11 00:27:46;;;;;;;4.93;1.80;;;7.40;99.90;;;;;;5015627;28;20174;-84
2023/12/11 00:30:12;;;;;;;5.00;1.83;;;7.40;99.90;;;;;;5013477;28;20175;-84
2023/12/11 00:32:38;;;;;;;5.60;1.70;;;7.40;99.90;;;;;;5013751;28;20226;-84
2023/12/11 00:35:04;;;;;;;2.77;1.40;;;7.40;99.90;;;;;;5015428;28;20199;-84
2023/12/11 00:37:30;;;;;;;3.80;1.77;;;7.40;99.90;;;;;;5013858;28;20174;-84
2023/12/11 00:39:55;;;;;;;3.60;1.47;;;7.50;99.90;;;;;;5013139;28;20168;-84
2023/12/11 00:42:21;;;;;;;8.67;1.80;;;7.40;99.90;;;;;;5014901;28;20322;-84
2023/12/11 00:44:47;;;;;;;3.03;1.57;;;7.40;99.90;;;;;;5014775;28;20183;-83
2023/12/11 00:47:12;;;;;;;4.57;1.50;;;7.40;99.90;;;;;;5014792;28;20190;-84
2023/12/11 00:49:38;;;;;;;3.93;1.40;;;7.40;99.90;;;;;;5014618;28;20179;-84
2023/12/11 00:52:04;;;;;;;3.83;1.60;;;7.40;99.90;;;;;;5015071;28;20289;-84
2023/12/11 00:54:30;;;;;;;3.63;1.60;;;7.40;99.90;;;;;;5014533;28;20559;-84
2023/12/11 00:56:56;;;;;;;5.23;1.60;;;7.40;99.90;;;;;;5013376;28;20292;-84
2023/12/11 00:59:21;;;;;;;2.17;1.20;;;7.30;99.90;;;;;;5014422;28;20204;-82
2023/12/11 01:01:48;;;;;;;3.87;1.40;;;7.30;99.90;;;;;;5013476;28;20177;-84
2023/12/11 01:04:14;;;;;;;4.50;1.57;;;7.30;99.90;;;;;;5013480;28;20180;-84
2023/12/11 01:06:39;;;;;;;5.83;1.73;;;7.40;99.90;;;;;;5013369;28;20196;-83
2023/12/11 01:09:05;;;;;;;4.73;1.60;;;7.40;99.90;;;;;;5013231;28;20640;-84
2023/12/11 01:11:31;;;;;;;3.40;1.53;;;7.40;99.90;;;;;;5013885;28;20258;-83
2023/12/11 01:13:56;;;;;;;2.90;1.30;;;7.50;99.90;;;;;;5013239;28;20302;-84
2023/12/11 01:16:22;;;;;;;3.17;1.20;;;7.50;99.90;;;;;;5014363;28;20196;-84
2023/12/11 01:18:47;;;;;;;4.00;1.30;;;7.50;99.90;;;;;;5014651;28;20183;-84
2023/12/11 01:21:13;;;;;;;4.37;1.50;;;7.50;99.90;;;;;;5012804;28;20176;-83
2023/12/11 01:23:39;;;;;;;1.73;1.20;;;7.50;99.90;;;;;;5013151;28;20267;-84
2023/12/11 01:26:05;;;;;;;1.90;1.07;;;7.60;99.90;;;;;;5014163;28;20235;-84
2023/12/11 01:28:31;;;;;;;4.20;1.30;;;7.60;99.90;;;;;;5014178;28;20641;-84
2023/12/11 01:30:56;;;;;;;2.83;1.33;;;7.60;99.90;;;;;;5012619;28;20182;-84
2023/12/11 01:33:22;;;;;;;2.07;1.13;;;7.60;99.90;;;;;;5012946;28;20226;-84
2023/12/11 01:35:47;;;;;;;4.03;1.30;;;7.60;99.90;;;;;;5014214;28;20227;-84
2023/12/11 01:38:13;;;;;;;2.67;1.30;;;7.60;99.90;;;;;;5012768;28;20174;-84
2023/12/11 01:40:39;;;;;;;2.97;1.33;;;7.60;99.90;;;;;;5013074;28;20185;-84
2023/12/11 01:43:16;;;;;;;2.80;1.27;;;7.60;99.90;;;;;;5012839;28;20272;-84
2023/12/11 01:45:41;;;;;;;3.50;1.50;;;7.60;99.90;;;;;;5012635;28;20223;-84
2023/12/11 01:48:11;;;;;;;4.23;1.50;;;7.50;99.90;;;;;;5013888;28;20183;-84
2023/12/11 01:50:38;;;;;;;2.70;1.30;;;7.60;99.90;;;;;;5013374;28;20231;-84
2023/12/11 01:53:04;;;;;;;3.10;1.40;;;7.50;99.90;;;;;;5012300;28;20200;-84
2023/12/11 01:55:32;;;;;;;3.10;1.60;;;7.50;99.90;;;;;;5012958;28;20200;-84
2023/12/11 01:58:00;;;;;;;2.60;1.43;;;7.50;99.90;;;;;;5014000;28;20166;-83
2023/12/11 02:00:25;;;;;;;3.20;1.40;;;7.60;99.90;;;;;;5013274;28;20227;-84
2023/12/11 02:02:51;;;;;;;2.27;1.50;;;7.70;99.90;;;;;;5012371;28;20172;-84
2023/12/11 02:05:17;;;;;;;2.83;1.57;;;7.60;99.90;;;;;;5013405;28;20193;-84
2023/12/11 02:07:43;;;;;;;2.83;1.50;;;7.60;99.90;;;;;;5013750;28;20182;-84
2023/12/11 02:10:09;;;;;;;1.80;1.40;;;7.60;99.90;;;;;;5012962;28;20184;-84
2023/12/11 02:12:35;;;;;;;2.70;1.60;;;7.60;99.90;;;;;;5012187;28;20197;-84
2023/12/11 02:15:01;;;;;;;3.33;1.40;;;7.60;99.90;;;;;;5012507;28;20311;-84
2023/12/11 02:17:27;;;;;;;3.47;1.50;;;7.70;99.90;;;;;;5012067;28;20210;-84
2023/12/11 02:19:53;;;;;;;4.13;1.63;;;7.60;99.90;;;;;;5011584;28;20705;-84
2023/12/11 02:22:18;;;;;;;2.37;1.43;;;7.60;99.90;;;;;;5012015;28;20180;-84
2023/12/11 02:24:49;;;;;;;3.10;1.77;;;7.60;99.90;;;;;;5012007;28;20181;-83
2023/12/11 02:27:15;;;;;;;4.43;1.50;;;7.60;99.90;;;;;;5055421;22;20224;-84
2023/12/11 02:29:40;;;;;;;2.37;1.40;;;7.60;99.90;;;;;;5051958;28;20279;-84
2023/12/11 02:32:06;;;;;;;4.03;1.30;;;7.60;99.90;;;;;;5034373;28;20692;-85
2023/12/11 02:34:32;;;;;;;1.93;1.40;;;7.60;99.90;;;;;;5034479;28;20194;-84
2023/12/11 02:36:57;;;;;;;2.90;1.53;;;7.60;99.90;;;;;;5052095;28;20242;-84
2023/12/11 02:39:23;;;;;;;2.87;1.20;;;7.70;99.90;;;;;;5051684;28;20206;-84
2023/12/11 02:41:49;;;;;;;3.87;1.67;;;7.70;99.90;;;;;;5034243;28;20199;-84
2023/12/11 02:44:14;;;;;;;3.27;1.40;;;7.70;99.90;;;;;;5034152;28;20543;-84
2023/12/11 02:46:40;;;;;;;2.10;1.20;;;7.70;99.90;;;;;;5034102;28;20192;-84
2023/12/11 02:49:06;;;;;;;3.00;1.43;;;7.70;99.90;;;;;;5051987;28;20182;-84
2023/12/11 02:51:31;;;;;;;3.13;1.33;;;7.70;99.90;;;;;;5033973;28;20183;-84
2023/12/11 02:53:57;;;;;;;2.03;1.40;;;7.70;99.90;;;;;;5034000;28;20201;-84
2023/12/11 02:56:22;;;;;;;2.47;1.50;;;7.70;99.90;;;;;;5034186;28;20219;-84
2023/12/11 02:58:48;;;;;;;4.40;1.40;;;7.70;99.90;;;;;;5052014;28;20196;-84
2023/12/11 03:01:15;;;;;;;4.67;1.37;;;7.70;99.90;;;;;;5051799;28;20163;-84
2023/12/11 03:03:41;;;;;;;4.83;1.50;;;7.70;99.90;;;;;;5034129;28;20179;-85
2023/12/11 03:06:08;;;;;;;3.57;1.70;;;7.70;99.90;;;;;;5036223;28;20207;-84
2023/12/11 03:08:36;;;;;;;3.30;1.40;;;7.70;99.90;;;;;;5037596;28;20184;-84
2023/12/11 03:11:01;;;;;;;3.27;1.60;;;7.70;99.90;;;;;;5055077;28;20178;-84
2023/12/11 03:13:27;;;;;;;2.50;1.60;;;7.70;99.90;;;;;;5054351;28;20215;-84
2023/12/11 03:15:52;;;;;;;3.47;1.50;;;7.80;99.90;;;;;;5037899;28;20186;-84
2023/12/11 03:18:18;;;;;;;3.47;1.47;;;7.80;99.90;;;;;;5037876;28;20172;-84
2023/12/11 03:20:44;;;;;;;2.07;1.33;;;7.80;99.90;;;;;;5037337;28;20174;-84
2023/12/11 03:23:09;;;;;;;2.57;1.20;;;7.90;99.90;;;;;;5037768;28;20215;-85
2023/12/11 03:25:35;;;;;;;2.50;1.50;;;7.90;99.90;;;;;;5037740;28;20216;-84
2023/12/11 03:28:00;;;;;;;2.63;1.20;;;7.90;99.90;;;;;;5037960;28;20205;-84
2023/12/11 03:30:26;;;;;;;2.33;1.30;;;7.90;99.90;;;;;;5037143;28;20225;-84
2023/12/11 03:32:52;;;;;;;3.70;1.50;;;7.90;99.90;;;;;;5037403;28;20303;-85
2023/12/11 03:35:17;;;;;;;2.40;1.40;;;7.80;99.90;;;;;;5037343;28;20175;-84
2023/12/11 03:37:43;;;;;;;4.13;1.30;;;7.90;99.90;;;;;;5055562;28;20170;-84
2023/12/11 03:40:09;;;;;;;2.60;1.40;;;7.90;99.90;;;;;;5054795;28;20263;-84
2023/12/11 03:42:34;;;;;;;3.73;1.30;;;7.80;99.90;;;;;;5055046;28;20550;-84
2023/12/11 03:45:00;;;;;;;3.57;1.80;;;7.80;99.90;;;;;;5037469;28;20176;-84
2023/12/11 03:47:26;;;;;;;2.90;1.40;;;7.90;99.90;;;;;;5055136;28;20212;-84
2023/12/11 03:49:51;;;;;;;2.20;1.50;;;7.90;99.90;;;;;;5054425;28;20267;-84
2023/12/11 03:52:17;;;;;;;3.33;1.50;;;7.80;99.90;;;;;;5036701;28;20257;-84
2023/12/11 03:54:42;;;;;;;1.97;1.40;;;7.80;99.90;;;;;;5036814;28;20639;-84
2023/12/11 03:57:08;;;;;;;2.37;1.40;;;7.70;99.90;;;;;;5036799;28;20293;-84
2023/12/11 03:59:34;;;;;;;1.80;1.30;;;7.70;99.90;;;;;;5054390;28;20550;-84
2023/12/11 04:01:59;;;;;;;2.77;1.27;;;7.80;99.90;;;;;;5036195;28;20183;-84
2023/12/11 04:04:25;;;;;;;2.20;1.17;;;7.80;99.90;;;;;;5036651;28;20227;-84
2023/12/11 04:06:51;;;;;;;2.67;1.40;;;7.80;99.90;;;;;;5054469;28;20188;-84
2023/12/11 04:09:16;;;;;;;2.60;1.30;;;7.80;99.90;;;;;;5036420;28;20177;-84
2023/12/11 04:11:43;;;;;;;4.53;1.40;;;7.90;99.90;;;;;;5054152;28;20215;-84
2023/12/11 04:14:09;;;;;;;2.00;1.30;;;7.90;99.90;;;;;;5036658;28;20210;-84
2023/12/11 04:16:35;;;;;;;2.97;1.33;;;7.90;99.90;;;;;;5036250;28;20192;-84
2023/12/11 04:19:00;;;;;;;2.73;1.30;;;7.90;99.90;;;;;;5054547;28;20174;-84
2023/12/11 04:21:26;;;;;;;3.00;1.37;;;7.90;99.90;;;;;;5036447;28;20176;-84
2023/12/11 04:23:52;;;;;;;3.43;1.50;;;7.90;99.90;;;;;;5054436;28;20670;-84
2023/12/11 04:26:17;;;;;;;2.67;1.17;;;7.90;99.90;;;;;;5036459;28;20581;-85
2023/12/11 04:28:43;;;;;;;2.30;1.40;;;7.90;99.90;;;;;;5036531;28;20175;-84
2023/12/11 04:31:08;;;;;;;3.20;1.73;;;7.90;99.90;;;;;;5036259;28;20187;-84
2023/12/11 04:33:37;;;;;;;1.67;1.17;;;7.90;99.90;;;;;;5036036;28;20363;-84
2023/12/11 04:36:10;;;;;;;2.97;1.37;;;8.00;99.90;;;;;;5036394;28;20198;-84
2023/12/11 04:38:36;;;;;;;1.93;1.40;;;8.00;99.90;;;;;;5054960;28;20182;-85
2023/12/11 04:41:02;;;;;;;3.67;1.40;;;8.10;99.90;;;;;;5053450;28;20665;-84
2023/12/11 04:43:28;;;;;;;2.13;1.50;;;8.00;99.90;;;;;;5036152;28;20185;-84
2023/12/11 04:45:53;;;;;;;1.93;1.10;;;8.00;99.90;;;;;;5036178;28;20210;-84
2023/12/11 04:48:19;;;;;;;2.67;1.47;;;8.00;99.90;;;;;;5036367;28;20263;-84
2023/12/11 04:50:45;;;;;;;3.67;1.30;;;8.00;99.90;;;;;;5035700;28;20177;-84
2023/12/11 04:53:10;;;;;;;3.20;1.40;;;8.00;99.90;;;;;;5035892;28;20205;-84
2023/12/11 04:55:36;;;;;;;3.43;1.57;;;8.00;99.90;;;;;;5036025;28;20196;-84
2023/12/11 04:58:02;;;;;;;2.47;1.30;;;8.00;99.90;;;;;;5054192;28;20195;-84
2023/12/11 05:00:27;;;;;;;5.13;1.40;;;8.00;99.90;;;;;;5053627;28;20173;-84
2023/12/11 05:02:53;;;;;;;2.13;1.30;;;8.00;99.90;;;;;;5053924;28;20172;-84
2023/12/11 05:05:18;;;;;;;2.93;1.43;;;8.00;99.90;;;;;;5053844;28;20229;-85
2023/12/11 05:07:44;;;;;;;2.70;1.30;;;8.10;99.90;;;;;;5053464;28;20178;-84
2023/12/11 05:10:09;;;;;;;4.67;1.47;;;8.10;99.90;;;;;;5035507;28;20652;-84
2023/12/11 05:12:35;;;;;;;3.60;1.40;;;8.10;99.90;;;;;;5035718;28;20204;-84
2023/12/11 05:15:01;;;;;;;2.97;1.37;;;8.10;99.90;;;;;;5053497;28;20224;-84
2023/12/11 05:17:27;;;;;;;2.40;1.27;;;8.10;99.90;;;;;;5053643;28;20200;-83
2023/12/11 05:19:54;;;;;;;4.30;1.50;;;8.10;99.90;;;;;;5053196;28;20173;-81
2023/12/11 05:22:20;;;;;;;3.90;1.83;;;8.10;99.90;;;;;;5054274;28;20255;-79
2023/12/11 05:24:47;;;;;;;2.00;1.20;;;8.10;99.90;;;;;;5055150;28;20261;-81
2023/12/11 05:27:13;;;;;;;2.60;1.30;;;8.10;99.90;;;;;;5053387;28;20216;-81
2023/12/11 05:29:39;;;;;;;2.77;1.17;;;8.20;99.90;;;;;;5034110;28;20185;-83
2023/12/11 05:32:05;;;;;;;3.47;1.40;;;8.20;99.90;;;;;;5035152;28;20180;-83
2023/12/11 05:34:30;;;;;;;2.67;1.30;;;8.20;99.90;;;;;;5035319;28;20558;-84
2023/12/11 05:36:56;;;;;;;4.93;1.90;;;8.20;99.90;;;;;;5052897;28;20224;-83
2023/12/11 05:39:22;;;;;;;3.97;1.30;;;8.20;99.90;;;;;;5035289;28;20181;-84
2023/12/11 05:41:47;;;;;;;3.80;1.40;;;8.10;99.90;;;;;;5053381;28;20194;-84
2023/12/11 05:44:13;;;;;;;5.60;1.30;;;8.20;99.90;;;;;;5035429;28;20521;-85
2023/12/11 05:46:38;;;;;;;3.30;1.60;;;8.20;99.90;;;;;;5052930;28;20196;-85
2023/12/11 05:49:04;;;;;;;4.53;1.30;;;8.20;99.90;;;;;;5054468;28;20174;-84
2023/12/11 05:51:30;;;;;;;6.90;1.30;;;8.20;99.90;;;;;;5035967;28;20239;-83
2023/12/11 05:53:55;;;;;;;4.63;1.93;;;8.20;99.90;;;;;;5036644;28;20208;-83
2023/12/11 05:56:21;;;;;;;3.07;1.30;;;8.20;99.90;;;;;;5054568;28;20258;-83
2023/12/11 05:58:47;;;;;;;4.60;1.30;;;8.20;99.90;;;;;;5036704;28;20184;-83
2023/12/11 06:01:12;;;;;;;4.53;1.50;;;8.20;99.90;;;;;;5054538;28;20195;-83
2023/12/11 06:03:38;;;;;;;4.33;1.23;;;8.20;99.90;;;;;;5054332;28;20215;-80
2023/12/11 06:06:04;;;;;;;7.03;1.50;;;8.20;99.90;;;;;;5035020;28;20202;-86
2023/12/11 06:08:30;;;;;;;3.97;1.40;;;8.20;99.90;;;;;;5034528;28;20187;-85
2023/12/11 06:10:55;;;;;;;3.97;1.50;;;8.20;99.90;;;;;;5032393;28;20200;-84
2023/12/11 06:13:21;;;;;;;5.20;1.40;;;8.30;99.90;;;;;;5027818;28;20205;-81
2023/12/11 06:15:47;;;;;;;4.37;1.43;;;8.30;99.90;;;;;;5027671;28;20200;-81
2023/12/11 06:18:12;;;;;;;4.37;1.43;;;8.30;99.90;;;;;;5027358;28;20176;-85
2023/12/11 06:20:38;;;;;;;2.57;1.23;;;8.30;99.90;;;;;;5024039;28;20185;-84
2023/12/11 06:23:04;;;;;;;5.30;1.43;;;8.20;99.90;;;;;;5041607;28;20228;-84
2023/12/11 06:25:30;;;;;;;3.97;1.43;;;8.20;99.90;;;;;;5049083;28;20625;-83
2023/12/11 06:27:55;;;;;;;5.40;1.33;;;8.30;99.90;;;;;;5040912;28;20188;-83
2023/12/11 06:30:21;;;;;;;2.93;1.50;;;8.30;99.90;;;;;;5029508;28;20680;-86
2023/12/11 06:32:46;;;;;;;4.73;1.47;;;8.30;99.90;;;;;;5031108;28;20213;-86
2023/12/11 06:35:12;;;;;;;5.80;1.50;;;8.30;99.90;;;;;;5022604;28;20184;-86
2023/12/11 06:37:37;;;;;;;5.77;1.30;;;8.40;99.90;;;;;;5040585;28;20177;-87
2023/12/11 06:40:04;;;;;;;5.70;1.70;;;8.40;99.90;;;;;;5029686;28;20556;-85
2023/12/11 06:42:36;;;;;;;4.10;1.40;;;8.30;99.90;;;;;;5038187;28;20177;-87
2023/12/11 06:45:02;;;;;;;5.77;1.60;;;8.30;99.90;;;;;;5036795;28;20559;-86
2023/12/11 06:47:27;;;;;;;4.00;1.47;;;8.30;99.90;;;;;;5037334;28;20203;-86
2023/12/11 06:49:53;;;;;;;6.87;1.80;;;8.30;99.90;;;;;;5036640;28;20743;-86
2023/12/11 06:52:18;;;;;;;8.17;1.90;;;8.30;99.90;;;;;;5055637;28;20279;-87
2023/12/11 06:54:44;;;;;;;6.30;1.60;;;8.30;99.90;;;;;;5055866;28;20174;-87
2023/12/11 06:57:10;;;;;;;5.50;1.50;;;8.40;99.90;;;;;;5055647;28;20271;-86
2023/12/11 06:59:35;;;;;;;3.80;1.33;;;8.30;99.90;;;;;;5055459;28;20283;-87
2023/12/11 07:02:02;;;;;;;3.60;1.80;;;8.30;99.90;;;;;;5055570;28;20272;-86
2023/12/11 07:04:27;;;;;;;7.00;1.60;;;8.30;99.90;;;;;;5037669;28;20177;-86
2023/12/11 07:06:53;;;;;;;6.27;1.50;;;8.30;99.90;;;;;;5055626;28;20191;-86
2023/12/11 07:09:19;;;;;;;6.53;1.50;;;8.30;99.90;;;;;;5037699;28;20166;-86
2023/12/11 07:11:44;;;;;;;5.13;1.73;;;8.20;99.90;;;;;;5037498;28;20640;-86
2023/12/11 07:14:10;;;;;;;5.57;1.57;;;8.30;99.90;;;;;;5037437;28;20312;-88
2023/12/11 07:16:35;;;;;;;6.67;1.43;;;8.30;99.90;;;;;;5036390;28;20215;-86
2023/12/11 07:19:04;;;;;;;5.50;1.70;;;8.30;99.90;;;;;;5054479;28;20172;-87
2023/12/11 07:21:30;;;;;;;4.03;1.37;;;8.30;99.90;;;;;;5053344;28;20544;-87
2023/12/11 07:23:55;;;;;;;4.03;1.60;;;8.30;99.90;;;;;;5053404;28;20678;-87
2023/12/11 07:26:21;;;;;;;5.50;1.50;;;8.30;99.90;;;;;;5054656;28;20220;-86
2023/12/11 07:28:47;;;;;;;6.20;1.70;;;8.30;99.90;;;;;;5037321;28;20529;-87
2023/12/11 07:31:12;;;;;;;5.97;1.53;;;8.40;99.90;;;;;;5054486;28;20177;-86
2023/12/11 07:33:38;;;;;;;3.93;1.43;;;8.30;99.90;;;;;;5054914;28;20291;-87
2023/12/11 07:36:04;;;;;;;5.67;1.40;;;8.40;99.90;;;;;;5037078;28;20219;-86
2023/12/11 07:38:30;;;;;;;4.57;1.27;;;8.40;99.90;;;;;;5036998;28;20259;-86
2023/12/11 07:40:57;;;;;;;4.33;1.60;;;8.40;99.90;;;;;;5036580;28;20269;-87
2023/12/11 07:43:23;;;;;;;6.47;1.70;;;8.50;99.90;;;;;;5054956;28;20180;-87
2023/12/11 07:45:49;;;;;;;3.03;1.93;;;8.50;99.90;;;;;;5054648;28;20201;-87
2023/12/11 07:48:15;;;;;;;4.73;1.10;;;8.60;99.90;;;;;;5036913;28;20176;-87
2023/12/11 07:50:40;;;;;;;2.87;1.80;;;8.60;99.90;;;;;;5036400;28;20217;-87
2023/12/11 07:53:06;;;;;;;4.63;1.50;;;8.60;99.90;;;;;;5053460;28;20258;-86
2023/12/11 07:55:33;;;;;;;3.50;1.33;;;8.60;99.90;;;;;;5036711;28;20253;-87
2023/12/11 07:57:59;;;;;;;6.23;1.30;;;8.60;99.90;;;;;;5054698;28;20264;-87
2023/12/11 08:00:24;;;;;;;3.80;1.50;;;8.60;99.90;;;;;;5053907;28;20263;-87
2023/12/11 08:02:50;;;;;;;6.23;1.60;;;8.60;99.90;;;;;;5054324;28;20197;-86
2023/12/11 08:05:16;;;;;;;2.10;1.50;;;8.60;99.90;;;;;;5054640;28;20181;-87
2023/12/11 08:07:42;;;;;;;4.27;1.30;;;8.70;99.90;;;;;;5036367;28;20182;-87
2023/12/11 08:10:08;;;;;;;4.30;1.53;;;8.70;99.90;;;;;;5035857;28;20208;-88
2023/12/11 08:12:33;;;;;;;4.90;1.63;;;8.70;99.90;;;;;;5036251;28;20320;-87
2023/12/11 08:14:59;;;;;;;3.97;1.70;;;8.70;99.90;;;;;;5054256;28;20187;-87
2023/12/11 08:17:25;;;;;;;4.07;1.73;;;8.80;99.90;;;;;;5053987;28;20191;-86
2023/12/11 08:19:51;;;;;;;4.43;1.70;;;8.80;99.90;;;;;;5053831;28;20226;-87
2023/12/11 08:22:16;;;;;;;5.33;1.57;;;8.80;99.90;;;;;;5036436;28;20242;-87
2023/12/11 08:24:43;;;;;;;2.33;1.47;;;8.70;99.90;;;;;;5054056;28;20170;-87
2023/12/11 08:27:08;;;;;;;3.43;1.50;;;8.70;99.90;;;;;;5051880;22;20257;-87
2023/12/11 08:29:35;;;;;;;3.50;1.50;;;8.80;99.90;;;;;;5053389;28;20263;-87
2023/12/11 08:32:02;;;;;;;3.40;1.77;;;8.80;99.90;;;;;;5035823;28;20173;-87
2023/12/11 08:34:28;;;;;;;6.90;1.60;;;8.80;99.90;;;;;;5054059;28;20181;-86
2023/12/11 08:36:54;;;;;;;5.60;1.47;;;8.70;99.90;;;;;;5053656;28;20185;-86
2023/12/11 08:39:20;;;;;;;3.50;1.60;;;8.80;99.90;;;;;;5035304;28;20171;-86
2023/12/11 08:41:47;;;;;;;3.50;1.40;;;8.80;99.90;;;;;;5035952;28;20173;-87
2023/12/11 08:44:13;;;;;;;4.40;1.50;;;8.80;99.90;;;;;;5035808;28;20173;-87
2023/12/11 08:46:39;;;;;;;3.40;1.47;;;8.90;99.90;;;;;;5035897;28;20193;-87
2023/12/11 08:49:04;;;;;;;5.10;2.07;;;8.80;99.90;;;;;;5035899;28;20176;-87
2023/12/11 08:51:30;;;;;;;3.07;1.40;;;8.80;99.90;;;;;;5035291;28;20169;-86
2023/12/11 08:53:56;;;;;;;2.80;1.30;;;8.80;99.90;;;;;;5053544;28;20205;-87
2023/12/11 08:56:23;;;;;;;4.77;1.70;;;8.80;99.90;;;;;;5053453;28;20192;-87
2023/12/11 08:58:50;;;;;;;4.93;1.87;;;8.90;99.90;;;;;;5053312;28;20183;-88
2023/12/11 09:01:15;;;;;;;2.33;1.30;;;8.90;99.90;;;;;;5035031;28;20176;-87
2023/12/11 09:03:42;;;;;;;3.23;1.60;;;9.00;99.90;;;;;;5035345;28;20181;-89
2023/12/11 09:06:08;;;;;;;2.70;1.60;;;9.00;99.90;;;;;;5053308;28;20208;-85
2023/12/11 09:08:34;;;;;;;5.10;2.60;;;9.00;99.90;;;;;;5027232;28;20178;-83
2023/12/11 09:11:00;;;;;;;5.90;2.03;;;9.00;99.90;;;;;;5030751;28;20181;-85
2023/12/11 09:13:26;;;;;;;2.67;2.00;;;9.00;99.90;;;;;;5035578;28;20662;-87
2023/12/11 09:15:51;;;;;;;4.70;1.73;;;9.00;99.90;;;;;;5015797;28;20190;-87
2023/12/11 09:18:17;;;;;;;4.53;1.40;;;9.00;99.90;;;;;;5019357;28;20182;-85
2023/12/11 09:20:43;;;;;;;3.07;1.20;;;9.00;99.90;;;;;;5033517;28;20173;-85
2023/12/11 09:23:09;;;;;;;4.83;1.40;;;9.00;99.90;;;;;;5035245;28;20207;-85
2023/12/11 09:25:36;;;;;;;3.73;1.43;;;9.00;99.90;;;;;;5030647;28;20185;-85
2023/12/11 09:28:02;;;;;;;3.33;1.30;;;9.00;99.90;;;;;;5034614;28;20196;-85
2023/12/11 09:30:28;;;;;;;3.20;1.53;;;9.00;99.90;;;;;;5050081;28;20182;-84
2023/12/11 09:32:54;;;;;;;7.13;2.47;;;8.90;99.90;;;;;;5052868;28;20567;-84
2023/12/11 09:35:20;;;;;;;5.20;2.10;;;9.00;99.90;;;;;;5053110;28;20267;-84
2023/12/11 09:37:46;;;;;;;5.73;2.47;;;8.90;99.90;;;;;;5034884;28;20216;-85
2023/12/11 09:40:12;;;;;;;12.73;9.03;;;8.90;99.90;;;;;;5034225;28;20223;-84
2023/12/11 09:42:41;;;;;;;10.00;4.53;;;8.90;99.90;;;;;;5034661;28;20177;-87
2023/12/11 09:45:08;;;;;;;7.97;4.30;;;9.00;99.90;;;;;;5035110;28;20178;-83
2023/12/11 09:47:42;;;;;;;9.93;4.60;;;9.10;99.90;;;;;;5034929;28;20201;-84
2023/12/11 09:50:08;;;;;;;6.33;2.80;;;9.10;99.90;;;;;;5034287;28;20661;-85
2023/12/11 09:52:39;;;;;;;4.73;1.60;;;9.10;99.90;;;;;;5052488;28;20200;-85
2023/12/11 09:55:05;;;;;;;4.37;2.97;;;9.00;99.90;;;;;;5052231;28;20185;-84
2023/12/11 09:57:31;;;;;;;6.33;2.23;;;9.10;99.90;;;;;;5052628;28;20279;-83
2023/12/11 09:59:57;;;;;;;5.33;1.40;;;9.20;99.90;;;;;;5033506;28;20285;-84
2023/12/11 10:02:25;;;;;;;5.67;2.10;;;9.40;99.90;;;;;;5052417;28;20195;-84
2023/12/11 10:05:08;;;;;;;4.90;2.13;;;9.40;99.90;;;;;;5034945;28;20264;-85
2023/12/11 10:07:38;;;;;;;4.13;1.63;;;9.40;99.90;;;;;;5034448;28;20681;-84
2023/12/11 10:10:38;;;;;;;6.20;2.93;;;9.40;99.90;;;;;;5051998;28;20214;-88
2023/12/11 10:13:03;;;;;;;4.40;1.40;;;9.40;99.90;;;;;;4981736;28;20747;-84
2023/12/11 10:15:31;;;;;;;3.23;1.70;;;9.30;99.90;;;;;;5033670;28;20178;-87
2023/12/11 10:18:06;;;;;;;4.93;1.83;;;9.30;99.90;;;;;;5032864;28;20173;-88
2023/12/11 10:20:33;;;;;;;2.73;1.33;;;9.40;99.90;;;;;;5051622;28;20189;-86
2023/12/11 10:23:09;;;;;;;5.73;1.30;;;9.50;99.90;;;;;;5052316;28;20264;-85
2023/12/11 10:25:35;;;;;;;3.73;1.27;;;9.50;99.90;;;;;;5052119;28;20174;-86
2023/12/11 10:28:08;;;;;;;6.27;1.50;;;9.80;99.90;;;;;;5051916;28;20193;-86
2023/12/11 10:30:52;;;;;;;4.50;1.50;;;10.00;99.90;;;;;;5051322;28;20586;-86
2023/12/11 10:33:20;;;;;;;4.17;1.40;;;10.00;99.90;;;;;;5051783;28;20712;-84
2023/12/11 10:35:46;;;;;;;2.80;1.20;;;9.80;97.50;;;;;;5052174;28;20178;-86
2023/12/11 10:38:23;;;;;;;5.60;1.43;;;9.70;99.90;;;;;;5051917;28;20174;-86
2023/12/11 10:40:50;;;;;;;3.87;1.10;;;9.90;99.90;;;;;;5033595;28;20672;-87
2023/12/11 10:43:17;;;;;;;4.73;1.47;;;9.90;46.00;;;;;;5034354;28;20650;-86
2023/12/11 10:45:43;;;;;;;5.20;1.30;;;9.80;99.60;;;;;;5051869;28;20646;-84
2023/12/11 10:48:09;;;;;;;9.13;3.23;;;9.80;99.90;;;;;;5033874;28;20181;-85
2023/12/11 10:50:36;;;;;;;6.13;2.10;;;9.90;99.90;;;;;;5043729;28;20186;-85
2023/12/11 10:53:02;;;;;;;5.63;1.47;;;10.20;99.90;;;;;;5027248;28;20200;-86
2023/12/11 10:55:29;;;;;;;5.03;1.50;;;10.20;74.90;;;;;;5033613;28;20182;-85
2023/12/11 10:57:55;;;;;;;5.50;1.33;;;10.10;24.00;;;;;;5051930;28;20174;-85
2023/12/11 11:00:21;;;;;;;4.20;2.03;;;9.90;99.90;;;;;;5033566;28;20200;-85
2023/12/11 11:02:51;;;;;;;3.27;1.30;;;9.80;99.90;;;;;;5051642;28;20178;-85
2023/12/11 11:05:18;;;;;;;3.20;1.27;;;9.80;99.90;;;;;;5051705;28;20186;-84
2023/12/11 11:08:01;;;;;;;3.73;1.30;;;9.70;99.90;;;;;;5033616;28;20197;-84
2023/12/11 11:10:34;;;;;;;3.60;1.50;;;9.70;99.90;;;;;;5033145;28;20177;-86
2023/12/11 11:13:08;;;;;;;5.43;1.80;;;9.60;99.90;;;;;;5051735;28;20213;-85
2023/12/11 11:15:34;;;;;;;6.17;1.40;;;9.50;99.90;;;;;;5033658;28;20174;-85
2023/12/11 11:18:07;;;;;;;4.97;1.67;;;9.50;99.90;;;;;;5051463;28;20170;-85
2023/12/11 11:20:34;;;;;;;6.30;1.50;;;9.40;99.90;;;;;;5032948;28;20194;-85
2023/12/11 11:23:15;;;;;;;7.03;1.80;;;9.30;99.90;;;;;;5033897;28;20178;-85
2023/12/11 11:25:53;;;;;;;6.33;1.60;;;9.30;99.90;;;;;;5051361;28;20602;-85
2023/12/11 11:28:38;;;;;;;8.30;1.80;;;9.20;99.90;;;;;;5055200;28;20184;-86
2023/12/11 11:31:05;;;;;;;3.63;1.50;;;9.10;99.90;;;;;;5036714;28;20260;-85
2023/12/11 11:33:49;;;;;;;7.97;1.73;;;9.10;99.90;;;;;;5054911;28;20192;-85
2023/12/11 11:36:17;;;;;;;7.23;1.67;;;9.10;99.90;;;;;;5055065;28;20190;-85
2023/12/11 11:38:56;;;;;;;4.43;1.30;;;9.10;99.90;;;;;;5037136;28;20177;-85
2023/12/11 11:41:26;;;;;;;5.23;1.40;;;9.10;99.90;;;;;;5054442;28;20249;-84
2023/12/11 11:44:05;;;;;;;4.37;1.47;;;9.20;99.90;;;;;;5054833;28;20177;-85
2023/12/11 11:46:57;;;;;;;4.40;1.50;;;9.20;99.90;;;;;;5036784;28;20276;-85
2023/12/11 11:49:26;;;;;;;4.23;1.50;;;9.10;99.90;;;;;;5054287;28;20174;-84
2023/12/11 11:51:52;;;;;;;5.60;2.40;;;9.20;99.90;;;;;;5054674;28;20252;-85
2023/12/11 11:54:23;;;;;;;4.17;2.03;;;9.20;99.90;;;;;;5036735;28;20202;-85
2023/12/11 11:56:49;;;;;;;6.07;1.70;;;9.20;99.90;;;;;;5036855;28;20280;-85
2023/12/11 11:59:14;;;;;;;8.53;2.83;;;9.20;99.90;;;;;;5054508;28;20256;-85
2023/12/11 12:01:50;;;;;;;9.30;4.50;;;9.20;99.90;;;;;;5036405;28;20166;-85
2023/12/11 12:04:25;;;;;;;8.63;4.67;;;9.20;99.90;;;;;;5036686;28;20271;-85
2023/12/11 12:06:51;;;;;;;7.87;3.70;;;9.30;99.90;;;;;;5036651;28;20197;-85
2023/12/11 12:09:19;;;;;;;8.03;3.83;;;9.30;99.90;;;;;;5036255;28;20264;-85
2023/12/11 12:11:45;;;;;;;11.97;3.23;;;9.40;99.90;;;;;;5036546;28;20178;-83
2023/12/11 12:14:13;;;;;;;10.93;4.27;;;9.40;99.90;;;;;;5054269;28;20204;-84
2023/12/11 12:16:38;;;;;;;4.30;2.00;;;9.40;99.90;;;;;;5054230;28;20312;-84
2023/12/11 12:19:05;;;;;;;7.87;3.77;;;9.40;99.90;;;;;;5054766;28;20170;-84
2023/12/11 12:21:32;;;;;;;8.30;3.27;;;9.40;99.90;;;;;;5054330;28;20228;-84
2023/12/11 12:24:04;;;;;;;8.17;2.17;;;9.40;99.90;;;;;;5037138;28;20181;-85
2023/12/11 12:26:32;;;;;;;16.50;8.53;;;9.30;99.90;;;;;;5037100;28;20255;-89
2023/12/11 12:28:58;;;;;;;6.77;3.10;;;9.30;99.90;;;;;;5040406;28;20181;-89
2023/12/11 12:31:24;;;;;;;8.37;2.27;;;9.40;99.90;;;;;;5053725;28;20177;-88
2023/12/11 12:33:49;;;;;;;7.73;1.80;;;9.40;99.90;;;;;;5037221;28;20224;-89
2023/12/11 12:36:15;;;;;;;8.40;1.93;;;9.40;99.90;;;;;;5053679;28;20570;-89
2023/12/11 12:38:41;;;;;;;2.80;1.57;;;9.40;99.90;;;;;;5053170;28;20200;-89
2023/12/11 12:41:11;;;;;;;8.77;3.23;;;9.40;99.90;;;;;;5035441;28;20653;-87
2023/12/11 12:43:36;;;;;;;8.20;3.40;;;9.40;99.90;;;;;;5054155;28;20178;-82
2023/12/11 12:46:02;;;;;;;5.33;2.80;;;9.50;99.90;;;;;;5037568;28;20201;-85
2023/12/11 12:48:28;;;;;;;7.07;3.73;;;9.50;99.90;;;;;;5055641;28;20219;-83
2023/12/11 12:51:07;;;;;;;12.13;7.70;;;9.50;99.90;;;;;;5037791;28;20223;-82
2023/12/11 12:53:32;;;;;;;5.37;3.40;;;9.50;99.90;;;;;;5035861;28;20201;-85
2023/12/11 12:55:58;;;;;;;9.27;5.20;;;9.50;99.90;;;;;;5053527;28;20200;-85